createdAt,value
2022-08-26T00:01:42.153Z,48.24
2022-08-26T00:04:12.268Z,47.44
2022-08-26T00:06:39.083Z,47.36
2022-08-26T00:09:16.376Z,47.85
2022-08-26T00:11:47.195Z,48.18
2022-08-26T00:14:16.488Z,47.80
2022-08-26T00:16:47.151Z,47.46
2022-08-26T00:19:17.848Z,47.05
2022-08-26T00:21:45.732Z,47.66
2022-08-26T00:24:13.232Z,47.38
2022-08-26T00:26:41.384Z,47.92
2022-08-26T00:29:08.521Z,48.46
2022-08-26T00:31:36.419Z,48.93
2022-08-26T00:34:04.331Z,49.80
2022-08-26T00:36:31.878Z,49.95
2022-08-26T00:38:58.742Z,49.93
2022-08-26T00:41:25.317Z,50.10
2022-08-26T00:43:52.616Z,49.60
2022-08-26T00:46:28.735Z,49.20
2022-08-26T00:49:05.281Z,49.09
2022-08-26T00:51:46.022Z,48.97
2022-08-26T00:54:13.191Z,49.45
2022-08-26T00:57:00.283Z,49.55
2022-08-26T00:59:29.093Z,49.09
2022-08-26T01:02:00.552Z,48.89
2022-08-26T01:04:31.509Z,48.77
2022-08-26T01:06:59.174Z,48.24
2022-08-26T01:09:26.984Z,49.06
2022-08-26T01:11:57.490Z,49.57
2022-08-26T01:14:28.584Z,49.65
2022-08-26T01:16:55.032Z,49.82
2022-08-26T01:19:32.538Z,48.89
2022-08-26T01:22:05.618Z,49.72
2022-08-26T01:24:32.522Z,49.87
2022-08-26T01:27:05.148Z,50.32
2022-08-26T01:29:33.999Z,49.58
2022-08-26T01:32:03.323Z,50.49
2022-08-26T01:34:35.999Z,49.57
2022-08-26T01:37:15.495Z,48.86
2022-08-26T01:39:44.997Z,49.14
2022-08-26T01:42:14.625Z,49.55
2022-08-26T01:45:14.298Z,50.30
2022-08-26T01:47:42.483Z,50.90
2022-08-26T01:50:27.525Z,51.91
2022-08-26T01:52:57.217Z,52.21
2022-08-26T01:55:32.861Z,51.59
2022-08-26T01:58:04.654Z,50.52
2022-08-26T02:00:32.689Z,50.39
2022-08-26T02:03:17.968Z,49.73
2022-08-26T02:05:53.331Z,49.24
2022-08-26T02:08:28.627Z,49.61
2022-08-26T02:10:55.466Z,49.99
2022-08-26T02:13:26.639Z,50.53
2022-08-26T02:15:55.333Z,51.28
2022-08-26T02:18:22.865Z,51.86
2022-08-26T02:20:51.530Z,53.17
2022-08-26T02:23:18.553Z,54.87
2022-08-26T02:26:07.411Z,56.32
2022-08-26T02:28:44.480Z,55.47
2022-08-26T02:31:11.483Z,55.12
2022-08-26T02:33:38.281Z,53.58
2022-08-26T02:36:10.597Z,52.91
2022-08-26T02:38:38.786Z,51.80
2022-08-26T02:41:06.578Z,51.90
2022-08-26T02:43:34.751Z,51.57
2022-08-26T02:46:02.290Z,51.22
2022-08-26T02:48:29.504Z,51.70
2022-08-26T02:50:56.180Z,52.43
2022-08-26T02:53:25.389Z,51.52
2022-08-26T02:55:52.662Z,50.90
2022-08-26T02:58:19.348Z,50.90
2022-08-26T03:00:53.356Z,50.84
2022-08-26T03:03:20.744Z,51.34
2022-08-26T03:05:50.318Z,52.10
2022-08-26T03:08:17.155Z,52.03
2022-08-26T03:10:44.376Z,52.78
2022-08-26T03:13:11.075Z,52.95
2022-08-26T03:15:37.684Z,54.19
2022-08-26T03:18:04.802Z,54.53
2022-08-26T03:20:32.074Z,54.67
2022-08-26T03:22:58.955Z,55.03
2022-08-26T03:25:26.578Z,55.62
2022-08-26T03:27:53.996Z,55.84
2022-08-26T03:30:39.905Z,54.87
2022-08-26T03:33:13.482Z,54.06
2022-08-26T03:35:43.478Z,53.55
2022-08-26T03:38:10.817Z,54.64
2022-08-26T03:40:37.884Z,54.57
2022-08-26T03:43:06.401Z,54.54
2022-08-26T03:45:36.492Z,54.69
2022-08-26T03:48:04.636Z,55.39
2022-08-26T03:50:34.380Z,56.60
2022-08-26T03:53:02.975Z,56.86
2022-08-26T03:55:32.005Z,56.92
2022-08-26T03:57:59.715Z,56.28
2022-08-26T04:00:26.917Z,55.60
2022-08-26T04:02:53.631Z,55.35
2022-08-26T04:05:22.041Z,55.78
2022-08-26T04:07:49.973Z,55.67
2022-08-26T04:10:20.249Z,55.46
2022-08-26T04:12:47.617Z,54.68
2022-08-26T04:15:16.119Z,54.74
2022-08-26T04:17:44.587Z,55.63
2022-08-26T04:20:13.940Z,55.70
2022-08-26T04:22:43.090Z,56.23
2022-08-26T04:25:10.947Z,56.23
2022-08-26T04:27:38.019Z,56.29
2022-08-26T04:30:07.967Z,56.84
2022-08-26T04:32:35.575Z,56.83
2022-08-26T04:35:03.506Z,56.33
2022-08-26T04:37:31.883Z,56.52
2022-08-26T04:39:59.430Z,56.49
2022-08-26T04:42:26.460Z,56.56
2022-08-26T04:44:53.086Z,56.55
2022-08-26T04:47:19.674Z,56.05
2022-08-26T04:49:46.250Z,57.22
2022-08-26T04:52:12.917Z,57.44
2022-08-26T04:54:39.508Z,57.16
2022-08-26T04:57:08.814Z,56.10
2022-08-26T04:59:39.053Z,56.25
2022-08-26T05:02:06.872Z,55.43
2022-08-26T05:04:34.520Z,55.52
2022-08-26T05:07:02.673Z,54.82
2022-08-26T05:09:29.793Z,55.42
2022-08-26T05:11:57.422Z,54.50
2022-08-26T05:14:24.066Z,54.55
2022-08-26T05:16:51.475Z,55.09
2022-08-26T05:19:18.858Z,55.39
2022-08-26T05:21:47.162Z,56.50
2022-08-26T05:24:14.330Z,57.79
2022-08-26T05:26:40.940Z,58.30
2022-08-26T05:29:07.913Z,58.18
2022-08-26T05:31:35.347Z,58.71
2022-08-26T05:34:04.436Z,58.58
2022-08-26T05:36:34.376Z,57.93
2022-08-26T05:39:03.691Z,56.37
2022-08-26T05:41:36.191Z,57.13
2022-08-26T05:44:05.916Z,56.29
2022-08-26T05:46:33.868Z,56.20
2022-08-26T05:49:01.300Z,57.00
2022-08-26T05:51:27.932Z,57.65
2022-08-26T05:53:57.115Z,58.24
2022-08-26T05:56:26.100Z,58.99
2022-08-26T05:58:53.698Z,58.00
2022-08-26T06:01:25.584Z,58.35
2022-08-26T06:03:54.743Z,58.10
2022-08-26T06:06:34.540Z,58.68
2022-08-26T06:09:04.038Z,58.24
2022-08-26T06:11:32.527Z,58.50
2022-08-26T06:14:04.297Z,58.93
2022-08-26T06:16:34.899Z,59.11
2022-08-26T06:19:03.799Z,58.24
2022-08-26T06:21:41.396Z,57.38
2022-08-26T06:24:29.811Z,56.85
2022-08-26T06:27:00.175Z,57.09
2022-08-26T06:29:29.462Z,56.97
2022-08-26T06:31:57.485Z,57.20
2022-08-26T06:34:29.816Z,58.09
2022-08-26T06:36:59.516Z,57.87
2022-08-26T06:39:26.160Z,58.19
2022-08-26T06:41:52.969Z,56.74
2022-08-26T06:44:20.234Z,56.21
2022-08-26T06:46:50.420Z,55.76
2022-08-26T06:49:18.086Z,55.78
2022-08-26T06:51:47.152Z,55.55
2022-08-26T06:54:15.583Z,54.99
2022-08-26T06:56:43.964Z,55.12
2022-08-26T06:59:12.206Z,55.77
2022-08-26T07:01:45.359Z,56.30
2022-08-26T07:04:15.657Z,56.24
2022-08-26T07:06:49.328Z,56.28
2022-08-26T07:09:16.924Z,56.06
2022-08-26T07:11:44.530Z,55.56
2022-08-26T07:14:11.459Z,55.80
2022-08-26T07:16:41.721Z,55.31
2022-08-26T07:19:10.911Z,54.90
2022-08-26T07:21:41.650Z,55.50
2022-08-26T07:24:11.073Z,55.23
2022-08-26T07:26:38.893Z,54.92
2022-08-26T07:29:12.322Z,54.75
2022-08-26T07:31:42.893Z,54.24
2022-08-26T07:34:11.705Z,54.34
2022-08-26T07:36:38.314Z,54.79
2022-08-26T07:39:05.670Z,54.25
2022-08-26T07:41:32.622Z,53.97
2022-08-26T07:43:59.345Z,53.69
2022-08-26T07:46:27.466Z,53.90
2022-08-26T07:48:57.409Z,53.27
2022-08-26T07:51:24.987Z,52.58
2022-08-26T07:53:52.531Z,52.17
2022-08-26T07:56:20.968Z,51.94
2022-08-26T07:58:51.517Z,51.90
2022-08-26T08:01:24.590Z,51.00
2022-08-26T08:03:53.751Z,51.51
2022-08-26T08:06:22.368Z,50.01
2022-08-26T08:08:50.729Z,49.61
2022-08-26T08:11:22.978Z,49.58
2022-08-26T08:13:56.138Z,49.56
2022-08-26T08:16:33.327Z,49.36
2022-08-26T08:19:01.082Z,49.23
2022-08-26T08:21:28.206Z,48.98
2022-08-26T08:23:56.958Z,49.15
2022-08-26T08:26:25.576Z,48.94
2022-08-26T08:28:57.586Z,49.89
2022-08-26T08:31:55.923Z,47.10
2022-08-26T08:34:18.461Z,47.68
2022-08-26T08:36:46.374Z,47.23
2022-08-26T08:39:13.842Z,47.04
2022-08-26T08:42:13.893Z,47.04
2022-08-26T08:44:44.255Z,46.36
2022-08-26T08:47:29.315Z,45.93
2022-08-26T08:50:03.389Z,46.06
2022-08-26T08:52:35.107Z,46.98
2022-08-26T08:55:02.411Z,46.28
2022-08-26T08:58:06.833Z,46.30
2022-08-26T09:00:46.466Z,46.46
2022-08-26T09:03:55.423Z,46.42
2022-08-26T09:06:22.112Z,46.03
2022-08-26T09:08:50.720Z,45.64
2022-08-26T09:11:19.700Z,45.72
2022-08-26T09:13:52.919Z,45.94
2022-08-26T09:16:32.951Z,46.52
2022-08-26T09:19:18.821Z,45.51
2022-08-26T09:21:46.406Z,45.08
2022-08-26T09:24:20.125Z,45.75
2022-08-26T09:26:49.781Z,46.02
2022-08-26T09:29:28.450Z,45.47
2022-08-26T09:32:16.360Z,45.20
2022-08-26T09:35:01.730Z,45.53
2022-08-26T09:37:38.756Z,44.71
2022-08-26T09:40:17.945Z,44.55
2022-08-26T09:42:45.107Z,44.30
2022-08-26T09:45:12.859Z,44.27
2022-08-26T09:47:52.769Z,44.23
2022-08-26T09:50:38.181Z,43.32
2022-08-26T09:53:28.693Z,42.63
2022-08-26T09:56:17.676Z,42.28
2022-08-26T09:58:47.288Z,42.19
2022-08-26T10:01:30.141Z,42.52
2022-08-26T10:04:10.241Z,42.20
2022-08-26T10:06:54.907Z,42.02
2022-08-26T10:09:23.780Z,40.93
2022-08-26T10:11:54.054Z,40.14
2022-08-26T10:14:39.828Z,40.33
2022-08-26T10:17:14.621Z,41.16
2022-08-26T10:19:57.181Z,39.92
2022-08-26T10:22:33.014Z,40.75
2022-08-26T10:25:03.299Z,41.87
2022-08-26T10:27:49.594Z,39.36
2022-08-26T10:30:23.646Z,39.96
2022-08-26T10:33:07.439Z,39.91
2022-08-26T10:35:37.612Z,38.67
2022-08-26T10:38:30.395Z,39.24
2022-08-26T10:41:10.455Z,39.75
2022-08-26T10:43:42.697Z,38.97
2022-08-26T10:46:16.328Z,38.60
2022-08-26T10:48:49.350Z,38.11
2022-08-26T10:51:28.853Z,38.28
2022-08-26T10:54:05.479Z,38.16
2022-08-26T10:56:52.892Z,37.13
2022-08-26T11:00:29.624Z,36.76
2022-08-26T11:03:27.470Z,37.05
2022-08-26T11:06:15.963Z,36.51
2022-08-26T11:08:48.299Z,35.80
2022-08-26T11:11:40.083Z,36.54
2022-08-26T11:14:29.321Z,35.13
2022-08-26T11:16:58.663Z,35.52
2022-08-26T11:19:59.445Z,34.79
2022-08-26T11:22:29.571Z,34.57
2022-08-26T11:24:56.445Z,34.58
2022-08-26T11:27:26.114Z,34.35
2022-08-26T11:29:57.366Z,32.46
2022-08-26T11:32:26.828Z,31.26
2022-08-26T11:34:59.151Z,30.96
2022-08-26T11:37:33.291Z,31.35
2022-08-26T11:40:01.606Z,31.61
2022-08-26T11:42:44.897Z,31.61
2022-08-26T11:45:25.203Z,31.46
2022-08-26T11:47:52.624Z,31.34
2022-08-26T11:50:26.082Z,31.55
2022-08-26T11:53:07.636Z,32.10
2022-08-26T11:55:41.776Z,33.35
2022-08-26T11:58:12.398Z,34.30
2022-08-26T12:00:52.258Z,35.58
2022-08-26T12:03:23.005Z,36.31
2022-08-26T12:05:53.576Z,36.69
2022-08-26T12:08:27.973Z,36.23
2022-08-26T12:11:06.892Z,36.64
2022-08-26T12:13:34.030Z,37.00
2022-08-26T12:16:01.509Z,36.22
2022-08-26T12:18:34.974Z,36.03
2022-08-26T12:21:12.623Z,35.46
2022-08-26T12:23:47.503Z,35.78
2022-08-26T12:26:29.583Z,35.93
2022-08-26T12:29:00.775Z,36.80
2022-08-26T12:31:37.536Z,37.00
2022-08-26T12:34:07.678Z,37.33
2022-08-26T12:36:47.490Z,37.58
2022-08-26T12:39:24.706Z,37.82
2022-08-26T12:41:57.439Z,37.87
2022-08-26T12:44:55.160Z,38.48
2022-08-26T12:47:43.973Z,39.09
2022-08-26T12:50:10.959Z,38.59
2022-08-26T12:52:59.241Z,38.63
2022-08-26T12:55:31.697Z,38.76
2022-08-26T12:58:22.958Z,38.17
2022-08-26T13:00:55.560Z,39.28
2022-08-26T13:03:38.616Z,38.99
2022-08-26T13:06:15.508Z,38.29
2022-08-26T13:09:08.859Z,38.65
2022-08-26T13:11:55.277Z,37.77
2022-08-26T13:14:24.486Z,38.05
2022-08-26T13:16:52.306Z,38.33
2022-08-26T13:19:25.776Z,37.72
2022-08-26T13:21:55.273Z,38.97
2022-08-26T13:24:38.071Z,38.30
2022-08-26T13:27:06.416Z,38.76
2022-08-26T13:29:33.056Z,38.18
2022-08-26T13:32:00.598Z,38.62
2022-08-26T13:34:27.945Z,38.74
2022-08-26T13:36:56.291Z,38.84
2022-08-26T13:39:24.063Z,39.24
2022-08-26T13:41:51.482Z,39.27
2022-08-26T13:44:18.464Z,39.56
2022-08-26T13:49:17.014Z,39.39
2022-08-26T13:51:43.637Z,39.25
2022-08-26T13:54:10.335Z,39.28
2022-08-26T13:56:37.482Z,39.44
2022-08-26T13:59:05.560Z,39.83
2022-08-26T14:01:35.075Z,40.30
2022-08-26T14:04:02.893Z,39.66
2022-08-26T14:06:30.042Z,39.65
2022-08-26T14:08:57.100Z,39.65
2022-08-26T14:11:24.851Z,39.56
2022-08-26T14:13:52.415Z,39.65
2022-08-26T14:16:29.262Z,40.12
2022-08-26T14:18:56.111Z,39.97
2022-08-26T14:21:23.916Z,39.65
2022-08-26T14:23:50.529Z,39.99
2022-08-26T14:26:28.769Z,40.26
2022-08-26T14:28:58.914Z,39.62
2022-08-26T14:31:27.168Z,39.84
2022-08-26T14:33:56.621Z,40.09
2022-08-26T14:36:29.365Z,39.18
2022-08-26T14:38:58.274Z,39.58
2022-08-26T14:41:25.411Z,40.00
2022-08-26T14:44:05.685Z,39.99
2022-08-26T14:46:37.601Z,39.67
2022-08-26T14:49:07.295Z,39.13
2022-08-26T14:51:36.596Z,39.00
2022-08-26T14:54:12.318Z,39.25
2022-08-26T14:56:48.765Z,39.05
2022-08-26T14:59:27.549Z,39.42
2022-08-26T15:01:55.291Z,39.47
2022-08-26T15:04:23.006Z,39.48
2022-08-26T15:06:50.794Z,39.08
2022-08-26T15:09:17.397Z,39.99
2022-08-26T15:11:44.498Z,39.91
2022-08-26T15:14:19.021Z,39.32
2022-08-26T15:16:47.889Z,40.22
2022-08-26T15:19:15.375Z,39.72
2022-08-26T15:21:43.307Z,39.42
2022-08-26T15:24:09.902Z,39.33
2022-08-26T15:26:36.721Z,38.76
2022-08-26T15:29:05.230Z,38.79
2022-08-26T15:31:33.600Z,39.18
2022-08-26T15:34:05.028Z,40.18
2022-08-26T15:36:33.011Z,40.59
2022-08-26T15:39:00.887Z,40.31
2022-08-26T15:41:28.184Z,40.49
2022-08-26T15:43:54.756Z,40.38
2022-08-26T15:46:21.409Z,40.38
2022-08-26T15:48:48.186Z,40.50
2022-08-26T15:51:23.830Z,40.35
2022-08-26T15:53:51.179Z,40.41
2022-08-26T15:56:18.327Z,40.44
2022-08-26T15:58:45.388Z,40.03
2022-08-26T16:01:12.485Z,39.74
2022-08-26T16:03:39.127Z,39.34
2022-08-26T16:06:06.871Z,39.95
2022-08-26T16:08:36.424Z,40.35
2022-08-26T16:11:04.118Z,40.17
2022-08-26T16:13:33.882Z,40.08
2022-08-26T16:16:07.919Z,40.11
2022-08-26T16:18:34.563Z,40.23
2022-08-26T16:21:13.750Z,39.99
2022-08-26T16:23:40.858Z,39.70
2022-08-26T16:26:15.873Z,39.48
2022-08-26T16:28:43.614Z,40.92
2022-08-26T16:31:10.750Z,41.32
2022-08-26T16:33:37.896Z,41.72
2022-08-26T16:36:05.658Z,41.32
2022-08-26T16:38:32.576Z,40.94
2022-08-26T16:41:00.601Z,41.67
2022-08-26T16:43:27.748Z,42.83
2022-08-26T16:45:54.467Z,42.70
2022-08-26T16:48:21.220Z,42.28
2022-08-26T16:50:47.960Z,43.06
2022-08-26T16:55:47.842Z,42.68
2022-08-26T16:58:15.013Z,43.61
2022-08-26T17:00:42.434Z,44.64
2022-08-26T17:03:10.013Z,44.16
2022-08-26T17:05:37.271Z,44.90
2022-08-26T17:08:04.643Z,44.76
2022-08-26T17:10:31.858Z,45.08
2022-08-26T17:12:58.651Z,44.72
2022-08-26T17:15:25.768Z,44.72
2022-08-26T17:17:53.176Z,45.96
2022-08-26T17:20:21.347Z,47.08
2022-08-26T17:22:50.748Z,47.22
2022-08-26T17:25:26.845Z,49.05
2022-08-26T17:27:53.644Z,48.76
2022-08-26T17:30:21.134Z,47.80
2022-08-26T17:32:48.441Z,49.42
2022-08-26T17:35:15.616Z,48.92
2022-08-26T17:37:43.499Z,49.17
2022-08-26T17:40:15.282Z,48.48
2022-08-26T17:42:42.418Z,47.85
2022-08-26T17:45:09.969Z,48.40
2022-08-26T17:47:37.432Z,48.30
2022-08-26T17:50:06.635Z,47.68
2022-08-26T17:52:33.307Z,49.77
2022-08-26T17:54:59.891Z,49.74
2022-08-26T17:57:27.094Z,50.38
2022-08-26T17:59:54.283Z,50.11
2022-08-26T18:02:21.410Z,51.66
2022-08-26T18:04:48.278Z,49.21
2022-08-26T18:07:15.511Z,51.10
2022-08-26T18:09:42.467Z,49.43
2022-08-26T18:12:09.241Z,50.49
2022-08-26T18:14:36.082Z,51.11
2022-08-26T18:17:03.054Z,52.12
2022-08-26T18:19:29.885Z,50.72
2022-08-26T18:21:56.942Z,50.08
2022-08-26T18:24:24.457Z,50.15
2022-08-26T18:26:51.080Z,50.35
2022-08-26T18:29:19.434Z,49.84
2022-08-26T18:31:46.475Z,50.22
2022-08-26T18:34:15.374Z,51.96
2022-08-26T18:36:42.689Z,50.31
2022-08-26T18:39:10.900Z,50.54
2022-08-26T18:41:46.700Z,50.58
2022-08-26T18:44:15.271Z,51.17
2022-08-26T18:46:42.996Z,50.24
2022-08-26T18:49:12.316Z,50.91
2022-08-26T18:51:39.151Z,50.46
2022-08-26T18:54:07.511Z,52.01
2022-08-26T18:56:36.282Z,51.08
2022-08-26T18:59:04.746Z,50.95
2022-08-26T19:01:32.664Z,52.20
2022-08-26T19:04:01.553Z,52.70
2022-08-26T19:06:31.522Z,51.76
2022-08-26T19:08:58.748Z,51.80
2022-08-26T19:11:32.231Z,51.51
2022-08-26T19:14:01.305Z,52.13
2022-08-26T19:16:29.206Z,51.75
2022-08-26T19:18:56.234Z,52.05
2022-08-26T19:21:23.203Z,50.81
2022-08-26T19:23:50.843Z,50.89
2022-08-26T19:26:19.295Z,52.08
2022-08-26T19:28:46.097Z,51.26
2022-08-26T19:31:12.757Z,52.17
2022-08-26T19:33:42.084Z,49.90
2022-08-26T19:36:15.021Z,51.23
2022-08-26T19:38:42.765Z,52.20
2022-08-26T19:41:14.867Z,50.25
2022-08-26T19:43:41.886Z,50.13
2022-08-26T19:46:13.801Z,50.65
2022-08-26T19:48:43.889Z,50.48
2022-08-26T19:51:21.994Z,52.91
2022-08-26T19:53:49.008Z,53.39
2022-08-26T19:56:16.419Z,54.21
2022-08-26T19:58:43.495Z,53.38
2022-08-26T20:01:10.621Z,52.43
2022-08-26T20:03:37.480Z,53.64
2022-08-26T20:06:06.279Z,52.29
2022-08-26T20:08:33.863Z,52.10
2022-08-26T20:11:02.652Z,52.01
2022-08-26T20:13:29.225Z,52.70
2022-08-26T20:15:55.846Z,52.20
2022-08-26T20:18:41.090Z,52.07
2022-08-26T20:21:26.415Z,51.64
2022-08-26T20:23:54.883Z,51.77
2022-08-26T20:26:21.736Z,52.35
2022-08-26T20:28:51.069Z,51.90
2022-08-26T20:31:19.212Z,52.83
2022-08-26T20:33:46.892Z,52.92
2022-08-26T20:36:14.927Z,51.37
2022-08-26T20:38:41.838Z,52.02
2022-08-26T20:41:08.535Z,51.66
2022-08-26T20:43:35.201Z,50.90
2022-08-26T20:46:01.900Z,52.08
2022-08-26T20:48:28.565Z,52.83
2022-08-26T20:50:59.895Z,51.33
2022-08-26T20:53:28.570Z,51.71
2022-08-26T20:55:59.722Z,51.07
2022-08-26T20:58:26.504Z,51.65
2022-08-26T21:00:53.179Z,53.39
2022-08-26T21:03:19.854Z,53.25
2022-08-26T21:05:46.469Z,54.28
2022-08-26T21:08:13.196Z,53.28
2022-08-26T21:10:40.383Z,54.15
2022-08-26T21:13:07.730Z,53.78
2022-08-26T21:15:35.179Z,53.99
2022-08-26T21:18:03.203Z,54.24
2022-08-26T21:20:30.669Z,54.38
2022-08-26T21:22:57.283Z,52.52
2022-08-26T21:25:24.078Z,53.88
2022-08-26T21:27:50.714Z,53.90
2022-08-26T21:30:17.350Z,54.66
2022-08-26T21:32:44.000Z,54.14
2022-08-26T21:35:10.622Z,55.07
2022-08-26T21:37:37.220Z,55.04
2022-08-26T21:40:05.617Z,52.42
2022-08-26T21:42:34.471Z,52.29
2022-08-26T21:45:02.866Z,52.28
2022-08-26T21:47:30.251Z,54.72
2022-08-26T21:49:56.928Z,54.80
2022-08-26T21:52:24.721Z,54.13
2022-08-26T21:54:51.363Z,54.95
2022-08-26T21:57:19.053Z,53.88
2022-08-26T21:59:45.668Z,54.36
2022-08-26T22:02:13.354Z,54.71
2022-08-26T22:04:43.652Z,54.65
2022-08-26T22:07:13.583Z,54.84
2022-08-26T22:09:41.281Z,54.74
2022-08-26T22:12:12.153Z,53.49
2022-08-26T22:14:39.718Z,53.13
2022-08-26T22:17:06.485Z,51.94
2022-08-26T22:19:34.045Z,51.61
2022-08-26T22:22:03.655Z,52.14
2022-08-26T22:24:30.277Z,53.81
2022-08-26T22:26:57.028Z,54.34
2022-08-26T22:29:24.998Z,54.78
2022-08-26T22:31:51.863Z,55.02
2022-08-26T22:34:20.290Z,56.23
2022-08-26T22:36:49.115Z,56.71
2022-08-26T22:39:18.956Z,57.01
2022-08-26T22:41:48.463Z,57.46
2022-08-26T22:44:15.867Z,56.81
2022-08-26T22:46:43.821Z,56.05
2022-08-26T22:49:12.577Z,56.24
2022-08-26T22:51:39.240Z,55.79
2022-08-26T22:54:05.947Z,55.87
2022-08-26T22:56:32.565Z,57.21
2022-08-26T22:58:59.160Z,55.67
2022-08-26T23:01:25.945Z,55.38
2022-08-26T23:03:53.081Z,54.68
2022-08-26T23:06:19.693Z,53.99
2022-08-26T23:08:47.029Z,53.77
2022-08-26T23:11:14.973Z,53.75
2022-08-26T23:13:42.475Z,53.60
2022-08-26T23:16:11.468Z,53.48
2022-08-26T23:18:38.669Z,53.46
2022-08-26T23:21:06.002Z,53.44
2022-08-26T23:23:33.074Z,54.17
2022-08-26T23:26:02.346Z,53.61
2022-08-26T23:28:32.256Z,53.24
2022-08-26T23:30:58.899Z,53.41
2022-08-26T23:33:45.504Z,53.84
2022-08-26T23:36:17.046Z,54.01
2022-08-26T23:38:44.498Z,54.32
2022-08-26T23:41:14.214Z,55.14
2022-08-26T23:43:45.020Z,55.01
2022-08-26T23:46:11.820Z,55.79
2022-08-26T23:48:38.605Z,56.02
2022-08-26T23:51:23.803Z,54.98
2022-08-26T23:53:50.835Z,55.98
2022-08-26T23:56:17.994Z,55.52
2022-08-26T23:58:45.001Z,54.98
